Time;durP1;ratioP1;P1;durP2;ratioP2;P2;SDS_P1;SDS_P2;PMS_P1;PMS_P2;Temp;Humidity;BMP_temperature;BMP_pressure;BME280_temperature;BME280_humidity;BME280_pressure;Samples;Min_cycle;Max_cycle;Signal;HPM_P1;HPM_P2
2022/04/29 00:02:16;;;;;;;8.23;5.07;;;8.00;99.90;;;;;;5095959;28;20492;-87
2022/04/29 00:04:43;;;;;;;5.80;5.30;;;8.00;99.90;;;;;;5086797;28;20075;-87
2022/04/29 00:07:10;;;;;;;6.15;5.57;;;8.10;99.90;;;;;;5097142;28;20039;-88
2022/04/29 00:09:37;;;;;;;5.07;4.68;;;8.00;99.90;;;;;;5092326;28;20051;-87
2022/04/29 00:12:07;;;;;;;6.35;5.75;;;8.00;99.90;;;;;;5094904;28;20047;-88
2022/04/29 00:14:33;;;;;;;5.80;4.38;;;8.10;99.90;;;;;;5090054;28;20424;-87
2022/04/29 00:16:59;;;;;;;7.18;5.50;;;8.00;99.90;;;;;;5100019;28;20032;-88
2022/04/29 00:19:26;;;;;;;6.38;5.18;;;8.00;99.90;;;;;;5094172;28;20028;-88
2022/04/29 00:21:53;;;;;;;6.63;5.57;;;7.80;99.90;;;;;;5094563;28;20044;-87
2022/04/29 00:24:19;;;;;;;4.80;4.22;;;7.60;99.90;;;;;;5097230;28;20028;-88
2022/04/29 00:26:46;;;;;;;5.00;4.38;;;7.60;99.90;;;;;;5097260;28;20031;-88
2022/04/29 00:29:12;;;;;;;5.43;4.93;;;7.50;99.90;;;;;;5095403;28;20039;-88
2022/04/29 00:31:39;;;;;;;5.40;4.90;;;7.50;99.90;;;;;;5099558;28;20035;-88
2022/04/29 00:34:06;;;;;;;4.85;4.38;;;7.40;99.90;;;;;;5088697;28;20039;-88
2022/04/29 00:36:33;;;;;;;5.28;4.70;;;7.50;99.90;;;;;;5079641;28;20487;-89
2022/04/29 00:38:59;;;;;;;7.28;4.68;;;7.50;99.90;;;;;;5112668;28;20054;-89
2022/04/29 00:41:27;;;;;;;5.03;4.60;;;7.50;99.90;;;;;;5086917;28;20047;-89
2022/04/29 00:44:05;;;;;;;4.22;3.90;;;7.40;99.90;;;;;;5090478;28;20043;-88
2022/04/29 00:46:38;;;;;;;17.00;5.93;;;7.40;99.90;;;;;;5111926;28;20039;-88
2022/04/29 00:49:06;;;;;;;5.78;5.38;;;7.40;99.90;;;;;;5114259;28;20372;-88
2022/04/29 00:51:33;;;;;;;6.07;5.38;;;7.40;99.90;;;;;;5114528;28;20358;-87
2022/04/29 00:54:02;;;;;;;6.57;5.97;;;7.40;99.90;;;;;;5110863;28;20043;-88
2022/04/29 00:56:30;;;;;;;4.60;4.25;;;7.40;99.90;;;;;;5095195;28;20051;-88
2022/04/29 00:59:33;;;;;;;7.55;6.07;;;7.30;99.90;;;;;;5109670;28;20035;-88
2022/04/29 01:02:02;;;;;;;6.22;5.63;;;7.20;99.90;;;;;;5073884;28;20043;-89
2022/04/29 01:04:33;;;;;;;5.47;5.00;;;7.10;99.90;;;;;;5094648;28;20043;-89
2022/04/29 01:06:59;;;;;;;6.10;5.55;;;7.20;99.90;;;;;;5104224;28;20034;-87
2022/04/29 01:09:25;;;;;;;5.72;5.25;;;7.30;99.90;;;;;;5091278;28;20416;-88
2022/04/29 01:11:52;;;;;;;6.65;5.45;;;7.10;99.90;;;;;;5116145;28;20028;-88
2022/04/29 01:14:18;;;;;;;6.63;6.03;;;7.10;99.90;;;;;;5094124;28;20043;-89
2022/04/29 01:16:46;;;;;;;5.85;5.35;;;7.10;99.90;;;;;;5079416;28;20048;-89
2022/04/29 01:19:12;;;;;;;6.22;5.63;;;7.00;99.90;;;;;;5065651;28;20055;-89
2022/04/29 01:21:39;;;;;;;6.53;6.03;;;7.00;99.90;;;;;;5108931;28;20059;-89
2022/04/29 01:24:07;;;;;;;6.72;6.22;;;6.90;99.90;;;;;;5094791;28;20044;-89
2022/04/29 01:26:34;;;;;;;8.52;6.63;;;6.80;99.90;;;;;;5095726;28;20038;-88
2022/04/29 01:29:01;;;;;;;7.05;6.35;;;6.80;99.90;;;;;;5080781;28;20032;-88
2022/04/29 01:31:30;;;;;;;7.20;6.60;;;6.90;99.90;;;;;;5097239;28;20040;-86
2022/04/29 01:33:57;;;;;;;7.25;6.40;;;6.90;99.90;;;;;;5079053;28;20039;-87
2022/04/29 01:36:24;;;;;;;7.88;7.05;;;6.80;99.90;;;;;;5078967;28;20043;-88
2022/04/29 01:38:50;;;;;;;8.00;7.28;;;6.90;99.90;;;;;;5094447;28;20044;-88
2022/04/29 01:41:16;;;;;;;9.52;6.82;;;6.80;99.90;;;;;;5095336;28;20035;-89
2022/04/29 01:43:44;;;;;;;8.20;6.75;;;6.80;99.90;;;;;;5094701;28;20134;-89
2022/04/29 01:46:13;;;;;;;7.35;6.65;;;6.80;99.90;;;;;;5107237;28;20396;-88
2022/04/29 01:48:46;;;;;;;7.57;6.97;;;6.80;99.90;;;;;;5080760;28;20043;-87
2022/04/29 01:51:15;;;;;;;8.18;7.38;;;6.90;99.90;;;;;;5111854;28;20469;-87
2022/04/29 01:53:42;;;;;;;6.82;6.22;;;6.80;99.90;;;;;;5089287;28;20044;-87
2022/04/29 01:56:09;;;;;;;7.20;6.60;;;6.70;99.90;;;;;;5113904;28;20039;-86
2022/04/29 01:58:35;;;;;;;8.13;7.35;;;6.70;99.90;;;;;;5095152;28;20040;-87
2022/04/29 02:01:02;;;;;;;7.68;7.05;;;6.60;99.90;;;;;;5094934;28;20040;-86
2022/04/29 02:03:29;;;;;;;7.35;6.70;;;6.50;99.90;;;;;;5095709;28;20043;-86
2022/04/29 02:05:56;;;;;;;8.00;7.20;;;6.60;99.90;;;;;;5082067;28;20040;-87
2022/04/29 02:08:22;;;;;;;8.73;7.93;;;6.60;99.90;;;;;;5077646;28;20035;-87
2022/04/29 02:10:48;;;;;;;13.35;8.07;;;6.50;99.90;;;;;;5094911;28;20223;-87
2022/04/29 02:13:20;;;;;;;8.43;7.55;;;6.40;99.90;;;;;;5091866;28;20508;-87
2022/04/29 02:15:57;;;;;;;9.57;8.38;;;6.50;99.90;;;;;;5034414;28;20041;-87
2022/04/29 02:18:23;;;;;;;9.60;8.60;;;6.50;99.90;;;;;;5033431;28;20032;-88
2022/04/29 02:20:50;;;;;;;8.60;7.82;;;6.40;99.90;;;;;;5045784;28;20510;-87
2022/04/29 02:23:17;;;;;;;9.13;8.32;;;6.30;99.90;;;;;;5066863;23;20045;-88
2022/04/29 02:25:43;;;;;;;9.65;8.52;;;6.30;99.90;;;;;;5029773;28;20036;-87
2022/04/29 02:28:10;;;;;;;9.77;8.98;;;6.30;99.90;;;;;;5057278;28;20037;-88
2022/04/29 02:30:39;;;;;;;8.55;7.75;;;6.30;99.90;;;;;;5025503;28;20045;-88
2022/04/29 02:33:05;;;;;;;7.88;7.28;;;6.30;99.90;;;;;;5032506;28;20045;-88
2022/04/29 02:35:31;;;;;;;9.93;9.00;;;6.20;99.90;;;;;;5016496;28;20067;-88
2022/04/29 02:37:57;;;;;;;10.43;9.57;;;6.20;99.90;;;;;;5033606;28;20425;-89
2022/04/29 02:40:24;;;;;;;10.65;9.75;;;6.20;99.90;;;;;;5029530;28;20056;-87
2022/04/29 02:42:51;;;;;;;11.55;10.25;;;6.10;99.90;;;;;;5037348;28;20409;-88
2022/04/29 02:45:17;;;;;;;11.27;10.18;;;6.10;99.90;;;;;;5047469;28;20064;-88
2022/04/29 02:47:46;;;;;;;11.48;10.48;;;6.00;99.90;;;;;;5026992;28;20042;-88
2022/04/29 02:50:12;;;;;;;10.57;9.63;;;5.80;99.90;;;;;;5022290;28;20054;-87
2022/04/29 02:52:47;;;;;;;12.18;10.95;;;5.60;99.90;;;;;;5023769;28;20064;-87
2022/04/29 02:55:14;;;;;;;12.32;11.13;;;5.60;99.90;;;;;;5032039;28;20397;-88
2022/04/29 02:57:59;;;;;;;10.48;9.35;;;5.50;99.90;;;;;;5048326;28;20509;-88
2022/04/29 03:00:25;;;;;;;13.00;11.80;;;5.50;99.90;;;;;;5048427;28;20494;-88
2022/04/29 03:02:51;;;;;;;11.73;10.73;;;5.60;99.90;;;;;;5031264;28;20490;-87
2022/04/29 03:05:19;;;;;;;10.95;10.02;;;5.70;99.90;;;;;;5012441;28;20044;-88
2022/04/29 03:07:45;;;;;;;11.40;10.40;;;5.80;99.90;;;;;;5034365;28;20041;-88
2022/04/29 03:10:15;;;;;;;10.57;9.60;;;5.80;99.90;;;;;;5044502;28;20040;-88
2022/04/29 03:12:42;;;;;;;10.98;9.90;;;5.80;99.90;;;;;;5033329;28;20049;-89
2022/04/29 03:15:37;;;;;;;12.52;10.68;;;5.70;99.90;;;;;;5049400;28;20129;-88
2022/04/29 03:18:21;;;;;;;11.70;10.70;;;5.60;99.90;;;;;;5057429;28;20040;-87
2022/04/29 03:20:53;;;;;;;12.73;11.43;;;5.70;99.90;;;;;;5035233;28;20029;-86
2022/04/29 03:23:19;;;;;;;11.23;10.32;;;5.70;99.90;;;;;;5023831;28;20048;-89
2022/04/29 03:25:49;;;;;;;13.93;11.03;;;5.70;99.90;;;;;;5020787;28;20037;-88
2022/04/29 03:28:16;;;;;;;12.68;10.18;;;5.70;99.90;;;;;;5054148;28;20052;-87
2022/04/29 03:30:43;;;;;;;11.40;10.55;;;5.60;99.90;;;;;;5050468;28;20052;-88
2022/04/29 03:33:11;;;;;;;17.20;11.57;;;5.60;99.90;;;;;;5049860;28;20049;-88
2022/04/29 03:35:41;;;;;;;12.07;10.95;;;5.40;99.90;;;;;;5014204;28;20049;-88
2022/04/29 03:38:12;;;;;;;11.30;10.32;;;5.40;99.90;;;;;;5032038;28;20037;-87
2022/04/29 03:40:40;;;;;;;12.48;11.25;;;5.40;99.90;;;;;;5034582;28;20443;-88
2022/04/29 03:43:06;;;;;;;13.07;11.93;;;5.30;99.90;;;;;;5033278;28;20045;-89
2022/04/29 03:45:33;;;;;;;13.15;12.15;;;5.30;99.90;;;;;;5039191;28;20044;-87
2022/04/29 03:48:01;;;;;;;13.93;12.77;;;5.30;99.90;;;;;;5053930;28;20501;-89
2022/04/29 03:50:42;;;;;;;;;;;5.30;99.90;;;;;;5030605;28;20056;-88
2022/04/29 03:53:13;;;;;;;10.10;9.10;;;5.30;99.90;;;;;;5029588;28;19928;-89
2022/04/29 03:55:43;;;;;;;13.45;12.07;;;5.20;99.90;;;;;;5037221;28;20052;-89
2022/04/29 03:58:09;;;;;;;12.63;11.57;;;5.20;99.90;;;;;;5053418;28;20029;-89
2022/04/29 04:00:55;;;;;;;12.82;11.68;;;5.20;99.90;;;;;;5038884;28;20366;-89
2022/04/29 04:03:33;;;;;;;14.60;12.20;;;5.30;99.90;;;;;;5033371;28;20044;-88
2022/04/29 04:08:51;;;;;;;13.52;12.32;;;5.40;99.90;;;;;;5049728;28;20477;-88
2022/04/29 04:11:17;;;;;;;13.20;12.20;;;5.40;99.90;;;;;;5034059;28;20072;-87
2022/04/29 04:13:46;;;;;;;13.63;12.43;;;5.30;99.90;;;;;;5033732;28;20415;-88
2022/04/29 04:16:28;;;;;;;16.27;14.68;;;5.40;99.90;;;;;;5039204;28;20048;-87
2022/04/29 04:18:55;;;;;;;13.98;11.38;;;5.40;99.90;;;;;;5047512;28;20045;-87
2022/04/29 04:21:21;;;;;;;14.57;13.27;;;5.30;99.90;;;;;;5030880;28;20041;-87
2022/04/29 04:23:48;;;;;;;13.25;12.25;;;5.40;99.90;;;;;;5017955;28;20052;-87
2022/04/29 04:26:14;;;;;;;12.50;11.40;;;5.50;99.90;;;;;;5017223;28;20049;-87
2022/04/29 04:28:42;;;;;;;12.38;11.30;;;5.50;99.90;;;;;;5036006;28;20045;-87
2022/04/29 04:31:09;;;;;;;12.40;11.18;;;5.60;99.90;;;;;;5016807;28;20044;-86
2022/04/29 04:33:44;;;;;;;12.57;11.32;;;5.70;99.90;;;;;;5034256;28;20406;-89
2022/04/29 04:36:13;;;;;;;15.80;11.55;;;5.70;99.90;;;;;;5016483;28;20068;-88
2022/04/29 04:38:39;;;;;;;11.85;10.65;;;5.70;99.90;;;;;;5031977;28;20036;-88
2022/04/29 04:41:08;;;;;;;11.70;10.63;;;5.70;99.90;;;;;;5015332;28;20037;-87
2022/04/29 04:43:37;;;;;;;11.02;10.02;;;5.70;99.90;;;;;;5039527;28;20041;-87
2022/04/29 04:46:06;;;;;;;11.35;9.98;;;5.80;99.90;;;;;;5034906;28;20061;-84
2022/04/29 04:48:39;;;;;;;12.50;11.38;;;5.90;99.90;;;;;;5049080;28;20120;-83
2022/04/29 04:51:34;;;;;;;12.68;11.63;;;6.00;99.90;;;;;;5059379;28;20063;-86
2022/04/29 04:54:05;;;;;;;12.05;10.65;;;6.10;99.90;;;;;;5049198;28;20043;-86
2022/04/29 04:56:32;;;;;;;9.82;8.82;;;6.30;99.90;;;;;;5066201;28;20047;-86
2022/04/29 04:59:00;;;;;;;9.65;8.75;;;6.40;99.90;;;;;;5054795;28;20039;-86
2022/04/29 05:01:26;;;;;;;10.85;9.82;;;6.60;99.90;;;;;;5032632;28;20045;-85
2022/04/29 05:04:11;;;;;;;11.77;9.45;;;7.00;99.90;;;;;;5053074;28;20028;-86
2022/04/29 05:06:56;;;;;;;14.65;8.27;;;7.90;99.90;;;;;;5044986;28;20044;-86
2022/04/29 05:09:22;;;;;;;9.80;8.80;;;9.30;99.90;;;;;;5052638;28;20056;-87
2022/04/29 05:11:49;;;;;;;13.88;8.05;;;10.10;99.90;;;;;;5022462;28;20036;-86
2022/04/29 05:14:38;;;;;;;9.88;8.82;;;10.50;99.90;;;;;;5044082;28;20041;-87
2022/04/29 05:17:05;;;;;;;8.80;7.90;;;10.50;99.90;;;;;;5017773;28;20068;-86
2022/04/29 05:19:57;;;;;;;11.00;7.13;;;10.50;99.70;;;;;;5019650;28;20048;-86
2022/04/29 05:22:29;;;;;;;9.10;7.70;;;10.20;99.90;;;;;;5026354;28;20401;-86
2022/04/29 05:24:56;;;;;;;7.32;6.68;;;9.90;99.90;;;;;;5034595;28;20040;-87
2022/04/29 05:27:41;;;;;;;7.25;6.65;;;10.00;99.90;;;;;;5048995;28;20049;-86
2022/04/29 05:30:27;;;;;;;7.65;6.85;;;10.40;99.90;;;;;;5053737;28;20044;-86
2022/04/29 05:33:11;;;;;;;7.40;6.25;;;10.80;99.90;;;;;;5044063;28;20056;-86
2022/04/29 05:35:56;;;;;;;12.00;7.07;;;11.20;99.30;;;;;;5050445;28;20044;-86
2022/04/29 05:44:11;;;;;;;7.18;6.68;;;11.90;98.70;;;;;;5037511;28;20056;-87
2022/04/29 05:46:37;;;;;;;11.98;8.45;;;12.60;97.00;;;;;;5053697;28;20029;-84
2022/04/29 05:49:04;;;;;;;9.25;8.23;;;13.30;94.80;;;;;;5019389;28;20037;-85
2022/04/29 05:51:35;;;;;;;8.73;7.85;;;13.20;93.80;;;;;;5061175;28;20045;-88
2022/04/29 05:54:02;;;;;;;8.70;7.82;;;12.50;95.30;;;;;;5017794;28;20045;-84
2022/04/29 05:56:28;;;;;;;15.95;9.68;;;11.80;96.90;;;;;;5054174;28;20389;-88
2022/04/29 05:58:55;;;;;;;8.98;8.15;;;11.40;98.20;;;;;;5035716;28;20041;-85
2022/04/29 06:01:47;;;;;;;9.45;8.55;;;11.10;99.10;;;;;;5040565;28;20417;-86
2022/04/29 06:04:15;;;;;;;10.48;9.10;;;10.60;99.90;;;;;;5030426;28;20041;-86
2022/04/29 06:06:43;;;;;;;9.88;8.93;;;10.70;99.90;;;;;;5048149;28;20052;-86
2022/04/29 06:09:09;;;;;;;10.30;9.27;;;10.70;99.90;;;;;;5052620;28;20029;-81
2022/04/29 06:11:36;;;;;;;10.40;9.15;;;10.70;99.90;;;;;;5058342;28;20053;-86
2022/04/29 06:14:04;;;;;;;12.07;10.23;;;10.50;99.90;;;;;;5043840;28;20234;-85
2022/04/29 06:16:48;;;;;;;10.27;9.27;;;10.50;99.90;;;;;;5050802;28;20048;-86
2022/04/29 06:19:47;;;;;;;12.15;10.88;;;10.60;99.90;;;;;;5069702;28;20025;-86
2022/04/29 06:22:33;;;;;;;10.50;9.05;;;10.70;99.90;;;;;;5066606;28;20045;-84
2022/04/29 06:25:00;;;;;;;13.02;9.98;;;10.70;99.90;;;;;;5031321;28;20043;-86
2022/04/29 06:27:26;;;;;;;10.88;9.80;;;10.50;99.90;;;;;;5019391;28;20045;-85
2022/04/29 06:29:53;;;;;;;14.27;11.63;;;10.60;99.90;;;;;;5050953;28;20044;-86
2022/04/29 06:32:20;;;;;;;11.85;9.82;;;10.60;99.90;;;;;;5027146;28;20041;-85
2022/04/29 06:35:09;;;;;;;13.55;9.93;;;10.40;99.90;;;;;;5037069;28;20038;-85
2022/04/29 06:37:37;;;;;;;10.65;9.75;;;10.50;99.90;;;;;;5033946;28;20048;-85
2022/04/29 06:40:22;;;;;;;10.43;9.23;;;10.60;99.90;;;;;;5053362;28;20036;-86
2022/04/29 06:42:55;;;;;;;11.68;10.00;;;10.70;99.90;;;;;;5036736;28;20041;-85
2022/04/29 06:45:39;;;;;;;10.10;9.10;;;10.70;99.90;;;;;;5054205;28;20488;-85
2022/04/29 06:48:24;;;;;;;10.23;9.23;;;10.70;99.90;;;;;;5038812;28;20060;-85
2022/04/29 06:51:08;;;;;;;11.25;10.18;;;10.80;99.90;;;;;;5054900;28;20051;-86
2022/04/29 06:53:46;;;;;;;9.93;8.93;;;11.20;99.90;;;;;;5033243;28;20049;-86
2022/04/29 06:56:12;;;;;;;9.82;8.85;;;11.30;99.90;;;;;;5036813;28;20052;-86
2022/04/29 06:58:39;;;;;;;9.07;8.10;;;11.70;99.90;;;;;;5038013;28;20441;-86
2022/04/29 07:01:06;;;;;;;9.80;8.90;;;12.10;98.60;;;;;;5033076;28;20042;-85
2022/04/29 07:03:32;;;;;;;9.35;8.25;;;12.20;98.80;;;;;;5033270;28;20482;-86
2022/04/29 07:06:01;;;;;;;9.30;8.50;;;12.90;96.70;;;;;;5047884;28;20044;-85
2022/04/29 07:08:28;;;;;;;10.63;6.80;;;13.60;94.70;;;;;;5038182;28;20048;-85
2022/04/29 07:11:07;;;;;;;10.40;8.07;;;13.80;94.30;;;;;;5054925;28;20037;-87
2022/04/29 07:13:45;;;;;;;16.50;6.80;;;14.40;93.80;;;;;;5055050;28;20496;-87
2022/04/29 07:16:13;;;;;;;;;;;15.20;90.00;;;;;;5038410;28;20413;-87
2022/04/29 07:18:59;;;;;;;7.28;6.68;;;16.80;83.90;;;;;;4997818;28;19908;-86
2022/04/29 07:21:26;;;;;;;8.02;7.22;;;16.80;80.30;;;;;;5020297;28;20049;-88
2022/04/29 07:23:52;;;;;;;8.48;6.45;;;15.70;82.10;;;;;;5022152;28;20045;-84
2022/04/29 07:26:18;;;;;;;10.88;7.32;;;14.90;85.60;;;;;;5018055;28;20045;-86
2022/04/29 07:28:45;;;;;;;8.10;7.30;;;14.90;85.60;;;;;;5018681;28;20037;-86
2022/04/29 07:31:12;;;;;;;8.55;7.60;;;14.80;86.20;;;;;;5017582;28;20497;-86
2022/04/29 07:33:57;;;;;;;8.65;6.70;;;14.80;88.50;;;;;;5035971;28;20052;-85
2022/04/29 07:42:11;;;;;;;7.57;6.90;;;14.90;84.80;;;;;;5014956;28;20129;-86
2022/04/29 07:44:37;;;;;;;9.00;7.25;;;15.30;84.20;;;;;;5012721;28;20471;-86
2022/04/29 07:47:07;;;;;;;7.97;6.30;;;15.80;84.50;;;;;;5014284;28;20053;-86
2022/04/29 07:49:47;;;;;;;6.93;6.10;;;15.90;80.20;;;;;;5017092;28;20042;-87
2022/04/29 07:52:18;;;;;;;7.82;6.50;;;16.10;77.90;;;;;;5042608;28;20050;-86
2022/04/29 07:54:44;;;;;;;6.63;5.97;;;15.90;78.10;;;;;;5009224;28;20057;-86
2022/04/29 07:57:11;;;;;;;7.05;6.35;;;15.80;78.30;;;;;;5012107;28;20034;-86
2022/04/29 07:59:37;;;;;;;7.85;6.68;;;16.10;78.50;;;;;;5011224;28;20045;-87
2022/04/29 08:02:24;;;;;;;6.55;5.95;;;16.10;78.40;;;;;;5001731;28;20041;-86
2022/04/29 08:04:50;;;;;;;5.90;5.38;;;16.30;78.90;;;;;;5013948;28;20045;-87
2022/04/29 08:07:16;;;;;;;7.40;6.55;;;16.70;76.60;;;;;;5025097;28;20049;-87
2022/04/29 08:09:43;;;;;;;6.28;5.63;;;15.80;78.30;;;;;;5033274;28;20060;-85
2022/04/29 08:12:13;;;;;;;7.18;6.47;;;16.00;78.50;;;;;;5015508;28;20037;-84
2022/04/29 08:14:57;;;;;;;6.53;5.93;;;16.40;77.90;;;;;;5034028;28;20513;-86
2022/04/29 08:17:25;;;;;;;7.63;6.93;;;16.10;75.30;;;;;;5033793;28;20398;-86
2022/04/29 08:19:52;;;;;;;6.43;5.72;;;15.50;77.60;;;;;;5016151;28;20029;-85
2022/04/29 08:22:40;;;;;;;7.32;6.50;;;15.40;78.40;;;;;;5035465;28;20057;-86
2022/04/29 08:25:06;;;;;;;8.00;7.18;;;15.30;78.80;;;;;;5053850;28;20055;-84
2022/04/29 08:27:32;;;;;;;6.82;6.13;;;15.00;80.20;;;;;;5035441;28;20068;-86
2022/04/29 08:30:00;;;;;;;10.45;6.82;;;15.00;80.70;;;;;;5053003;28;20033;-86
2022/04/29 08:32:37;;;;;;;8.80;6.82;;;14.90;82.20;;;;;;5032930;28;20040;-84
2022/04/29 08:35:03;;;;;;;11.30;7.75;;;14.80;83.40;;;;;;5014005;28;20056;-86
2022/04/29 08:37:30;;;;;;;9.38;8.13;;;14.80;84.70;;;;;;5016210;28;20053;-86
2022/04/29 08:39:57;;;;;;;7.43;5.90;;;15.30;83.10;;;;;;5017766;28;20045;-86
2022/04/29 08:42:27;;;;;;;8.10;6.60;;;15.90;81.10;;;;;;5017082;28;20045;-86
2022/04/29 08:44:54;;;;;;;12.48;7.90;;;16.50;77.70;;;;;;5029768;28;20131;-85
2022/04/29 08:47:54;;;;;;;9.10;7.25;;;16.20;77.40;;;;;;5052525;28;20041;-86
2022/04/29 08:50:21;;;;;;;8.65;6.97;;;16.20;77.60;;;;;;5035570;28;20374;-86
2022/04/29 08:52:50;;;;;;;6.93;6.25;;;16.80;75.50;;;;;;5029534;28;20139;-87
2022/04/29 09:00:48;;;;;;;8.82;5.85;;;19.20;65.40;;;;;;5048608;28;20037;-86
2022/04/29 09:03:17;;;;;;;7.65;5.68;;;19.00;63.90;;;;;;5051721;28;20041;-84
2022/04/29 09:05:45;;;;;;;8.60;5.95;;;19.30;63.60;;;;;;5053123;28;20040;-83
2022/04/29 09:08:14;;;;;;;8.20;4.75;;;20.10;59.70;;;;;;5054226;28;20028;-83
2022/04/29 09:10:48;;;;;;;5.97;5.20;;;20.80;59.40;;;;;;5046571;28;20402;-83
2022/04/29 09:13:29;;;;;;;5.93;5.32;;;20.80;58.50;;;;;;5033562;28;20306;-83
2022/04/29 09:16:07;;;;;;;9.02;5.55;;;21.10;59.80;;;;;;5046561;28;20474;-84
2022/04/29 09:18:42;;;;;;;5.22;4.72;;;21.00;58.40;;;;;;5028040;28;20037;-84
2022/04/29 09:21:14;;;;;;;8.63;5.47;;;20.20;59.90;;;;;;5047988;28;20048;-83
2022/04/29 09:23:54;;;;;;;7.03;5.13;;;20.50;59.50;;;;;;5045659;28;20044;-83
2022/04/29 09:26:39;;;;;;;5.43;4.97;;;20.60;58.90;;;;;;5051641;28;20393;-83
2022/04/29 09:29:29;;;;;;;7.25;5.30;;;19.90;60.60;;;;;;5048222;28;20048;-83
2022/04/29 09:32:48;;;;;;;6.30;5.47;;;19.60;61.00;;;;;;5045653;28;20044;-84
2022/04/29 09:35:38;;;;;;;7.03;5.80;;;18.70;63.00;;;;;;5037786;28;20056;-82
2022/04/29 09:40:52;;;;;;;6.32;5.20;;;17.80;64.30;;;;;;5051419;28;20394;-85
2022/04/29 09:43:32;;;;;;;7.05;6.35;;;17.90;64.80;;;;;;5044136;28;20041;-83
2022/04/29 09:46:20;;;;;;;5.75;4.40;;;19.00;65.10;;;;;;5048609;28;20036;-85
2022/04/29 09:48:51;;;;;;;8.38;5.65;;;19.30;60.40;;;;;;5045158;28;20037;-83
2022/04/29 09:51:43;;;;;;;6.82;4.82;;;19.10;60.00;;;;;;5019370;28;20037;-85
2022/04/29 09:54:23;;;;;;;8.32;5.30;;;18.90;61.90;;;;;;5042393;28;20040;-85
2022/04/29 09:57:15;;;;;;;5.80;5.13;;;20.00;60.40;;;;;;5054977;28;20037;-86
2022/04/29 09:59:54;;;;;;;6.05;5.45;;;20.40;59.60;;;;;;5039524;28;20045;-86
2022/04/29 10:02:22;;;;;;;7.82;5.72;;;20.10;59.60;;;;;;5068372;28;20017;-84
2022/04/29 10:04:52;;;;;;;8.15;6.38;;;19.00;60.50;;;;;;5057244;28;20041;-84
2022/04/29 10:07:20;;;;;;;5.57;5.00;;;18.40;61.10;;;;;;5058415;28;20037;-85
2022/04/29 10:09:52;;;;;;;7.93;6.30;;;18.70;60.90;;;;;;5035069;28;20462;-85
2022/04/29 10:12:21;;;;;;;9.20;6.47;;;19.10;61.70;;;;;;5029708;28;20049;-86
2022/04/29 10:15:05;;;;;;;6.85;6.13;;;19.00;61.20;;;;;;5024599;28;20049;-85
2022/04/29 10:23:21;;;;;;;8.63;4.75;;;19.00;60.00;;;;;;5047159;28;20390;-86
2022/04/29 10:25:48;;;;;;;8.30;6.00;;;18.90;59.80;;;;;;5033513;28;20375;-86
2022/04/29 10:28:21;;;;;;;6.82;5.50;;;19.00;60.60;;;;;;5047473;28;20033;-86
2022/04/29 10:31:03;;;;;;;6.47;5.88;;;19.30;59.80;;;;;;5051426;28;20056;-84
2022/04/29 10:33:30;;;;;;;7.97;5.22;;;19.40;59.20;;;;;;5049012;28;20040;-84
2022/04/29 10:36:04;;;;;;;6.05;5.47;;;19.10;59.40;;;;;;5029846;28;20057;-84
2022/04/29 10:38:35;;;;;;;5.75;5.13;;;18.90;60.00;;;;;;5039683;28;20033;-85
2022/04/29 10:41:13;;;;;;;6.10;5.25;;;18.90;59.80;;;;;;5052083;28;20454;-84
2022/04/29 10:43:52;;;;;;;6.53;5.30;;;18.80;60.50;;;;;;5024415;28;20045;-85
2022/04/29 10:46:37;;;;;;;9.57;5.70;;;18.70;59.90;;;;;;5048505;28;20029;-81
2022/04/29 10:49:30;;;;;;;7.05;5.00;;;18.90;59.50;;;;;;5041312;28;20040;-87
2022/04/29 10:52:27;;;;;;;6.15;5.53;;;18.70;59.50;;;;;;5015507;28;20036;-84
2022/04/29 10:55:00;;;;;;;11.25;6.18;;;18.80;60.30;;;;;;5046112;28;20037;-81
2022/04/29 10:57:40;;;;;;;8.35;5.22;;;19.10;60.30;;;;;;5033565;28;20052;-84
2022/04/29 11:00:12;;;;;;;7.55;5.05;;;18.90;58.80;;;;;;5050480;28;20033;-78
2022/04/29 11:02:46;;;;;;;5.95;4.93;;;18.90;57.70;;;;;;5031598;28;20509;-79
2022/04/29 11:05:36;;;;;;;6.80;4.88;;;19.20;58.60;;;;;;5051313;28;20069;-78
2022/04/29 11:08:10;;;;;;;5.85;3.88;;;19.30;57.70;;;;;;5047886;28;20033;-79
2022/04/29 11:10:58;;;;;;;5.57;5.07;;;19.90;56.80;;;;;;5051493;28;20389;-80
2022/04/29 11:13:27;;;;;;;5.25;4.30;;;19.70;54.60;;;;;;5044682;28;20048;-79
2022/04/29 11:16:25;;;;;;;5.63;3.58;;;19.60;53.90;;;;;;5026402;28;20398;-78
2022/04/29 11:19:21;;;;;;;6.68;4.47;;;19.50;53.10;;;;;;5051090;28;20041;-79
2022/04/29 11:25:05;;;;;;;8.80;4.13;;;19.40;53.40;;;;;;4963848;28;20066;-79
2022/04/29 11:27:40;;;;;;;5.60;4.20;;;19.40;53.60;;;;;;4972765;28;20039;-80
2022/04/29 11:30:20;;;;;;;5.60;4.32;;;19.30;53.00;;;;;;5012572;28;20037;-79
2022/04/29 11:32:53;;;;;;;5.22;3.38;;;19.40;52.20;;;;;;5052412;28;20037;-79
2022/04/29 11:35:23;;;;;;;6.90;5.05;;;19.60;52.90;;;;;;5054824;28;20458;-79
2022/04/29 11:37:50;;;;;;;5.10;4.25;;;19.80;53.40;;;;;;5048436;28;20382;-79
2022/04/29 11:40:16;;;;;;;5.00;3.67;;;19.90;51.90;;;;;;5051550;28;20390;-79
2022/04/29 11:42:50;;;;;;;4.65;3.65;;;19.90;50.20;;;;;;5046017;28;20386;-79
2022/04/29 11:45:19;;;;;;;5.82;3.30;;;20.20;48.60;;;;;;5056108;28;20044;-79
2022/04/29 11:47:50;;;;;;;4.22;2.85;;;20.00;45.90;;;;;;5037894;28;20037;-80
2022/04/29 11:50:16;;;;;;;4.00;3.03;;;20.10;46.30;;;;;;5050708;28;20117;-79
2022/04/29 11:52:42;;;;;;;3.33;2.95;;;19.50;47.20;;;;;;5048999;28;20025;-81
2022/04/29 11:55:12;;;;;;;6.32;3.22;;;19.90;48.00;;;;;;5050337;28;20045;-80
2022/04/29 11:57:47;;;;;;;4.95;3.42;;;19.40;48.60;;;;;;5047223;28;20025;-82
2022/04/29 12:00:29;;;;;;;5.25;3.20;;;19.50;49.60;;;;;;5050758;28;20712;-77
2022/04/29 12:02:57;;;;;;;2.83;2.50;;;19.90;49.40;;;;;;5047307;28;20044;-77
2022/04/29 12:05:24;;;;;;;3.63;3.17;;;20.30;49.40;;;;;;5052971;28;20041;-80
2022/04/29 12:07:52;;;;;;;5.28;3.33;;;20.40;49.80;;;;;;5052970;28;20475;-79
2022/04/29 12:10:42;;;;;;;6.45;3.65;;;20.20;49.30;;;;;;5045249;28;20108;-82
2022/04/29 12:13:09;;;;;;;3.38;3.00;;;20.10;49.30;;;;;;5049698;28;20124;-78
2022/04/29 12:15:38;;;;;;;6.95;3.30;;;20.30;49.60;;;;;;5035464;28;20029;-78
2022/04/29 12:18:10;;;;;;;4.80;3.53;;;20.80;49.40;;;;;;5048431;28;20028;-79
2022/04/29 12:20:38;;;;;;;5.07;3.65;;;21.20;47.30;;;;;;5052905;28;20043;-79
2022/04/29 12:23:35;;;;;;;4.20;3.50;;;20.90;47.40;;;;;;5054621;28;20056;-81
2022/04/29 12:26:03;;;;;;;3.67;3.00;;;20.70;48.10;;;;;;5048873;28;20037;-78
2022/04/29 12:28:31;;;;;;;5.57;3.35;;;20.90;47.40;;;;;;5053137;28;20057;-79
2022/04/29 12:37:08;;;;;;;4.35;3.85;;;20.40;48.60;;;;;;5046426;28;20037;-78
2022/04/29 12:39:51;;;;;;;;;;;20.30;49.10;;;;;;5035545;28;20509;-78
2022/04/29 12:42:18;;;;;;;8.52;3.80;;;20.40;49.40;;;;;;5047729;28;20354;-78
2022/04/29 12:47:41;;;;;;;3.10;2.80;;;20.50;49.00;;;;;;5016154;28;20117;-78
2022/04/29 12:50:34;;;;;;;5.47;3.63;;;20.70;49.00;;;;;;5038551;28;20041;-78
2022/04/29 12:53:10;;;;;;;6.80;4.15;;;20.70;48.90;;;;;;5045737;28;20029;-78
2022/04/29 12:55:43;;;;;;;4.35;3.95;;;20.30;48.90;;;;;;5053226;28;20048;-78
2022/04/29 12:58:18;;;;;;;4.10;2.90;;;20.50;48.10;;;;;;5051604;28;20334;-79
2022/04/29 13:00:51;;;;;;;7.25;3.08;;;20.40;48.40;;;;;;5052563;28;20040;-79
2022/04/29 13:03:29;;;;;;;3.45;2.83;;;20.70;49.10;;;;;;5051042;28;20032;-78
2022/04/29 13:06:06;;;;;;;5.15;3.55;;;20.90;47.90;;;;;;5034167;28;20041;-79
2022/04/29 13:08:32;;;;;;;4.25;2.33;;;21.10;47.60;;;;;;5049116;28;20025;-79
2022/04/29 13:11:01;;;;;;;4.80;2.95;;;20.70;48.40;;;;;;5051151;28;20266;-78
2022/04/29 13:13:28;;;;;;;3.05;2.47;;;20.70;48.10;;;;;;5029040;28;20391;-79
2022/04/29 13:15:55;;;;;;;5.40;2.30;;;20.30;48.50;;;;;;5046551;28;20029;-79
2022/04/29 13:18:23;;;;;;;4.03;1.98;;;20.30;49.30;;;;;;5046513;28;20049;-79
2022/04/29 13:20:51;;;;;;;2.80;2.50;;;20.90;48.00;;;;;;5051463;28;20029;-79
2022/04/29 13:23:23;;;;;;;3.30;2.80;;;20.60;46.60;;;;;;5028697;28;20061;-79
2022/04/29 13:26:02;;;;;;;2.72;2.42;;;20.50;46.40;;;;;;5048493;28;20052;-79
2022/04/29 13:28:31;;;;;;;2.88;2.25;;;20.90;46.70;;;;;;5034106;28;20040;-80
2022/04/29 13:31:01;;;;;;;5.40;3.00;;;21.10;45.80;;;;;;5047551;28;20036;-79
2022/04/29 13:33:28;;;;;;;3.53;2.80;;;20.70;45.90;;;;;;5045973;28;20519;-79
2022/04/29 13:35:55;;;;;;;4.53;2.90;;;21.00;46.30;;;;;;5051316;28;20021;-79
2022/04/29 13:38:22;;;;;;;3.42;2.85;;;20.90;46.20;;;;;;5047597;28;20035;-80
2022/04/29 13:40:49;;;;;;;2.70;2.15;;;21.10;46.00;;;;;;5048109;28;20029;-80
2022/04/29 13:43:16;;;;;;;5.95;3.20;;;21.20;46.10;;;;;;5040926;28;20029;-79
2022/04/29 13:45:44;;;;;;;2.50;2.08;;;21.20;46.30;;;;;;5016991;28;20048;-80
2022/04/29 13:48:13;;;;;;;2.95;2.20;;;21.10;46.90;;;;;;5045908;28;20037;-79
2022/04/29 13:50:39;;;;;;;3.20;2.80;;;21.20;45.40;;;;;;5051851;28;20033;-79
2022/04/29 13:53:08;;;;;;;2.50;2.28;;;20.70;45.70;;;;;;5048158;28;20025;-79
2022/04/29 13:55:54;;;;;;;6.20;3.00;;;20.60;46.60;;;;;;5048244;28;20042;-79